sensor_id;sensor_type;location;lat;lon;timestamp;P1;durP1;ratioP1;P2;durP2;ratioP2
48795;SDS011;34607;48.520;-1.330;2023-07-20T07:03:26;17.05;;;13.15;;
48795;SDS011;34607;48.520;-1.330;2023-07-20T07:05:55;21.30;;;14.10;;
48795;SDS011;34607;48.520;-1.330;2023-07-20T07:08:22;13.27;;;11.95;;
48795;SDS011;34607;48.520;-1.330;2023-07-20T07:10:49;17.35;;;13.13;;
48795;SDS011;34607;48.520;-1.330;2023-07-20T07:13:16;14.65;;;10.82;;
48795;SDS011;34607;48.520;-1.330;2023-07-20T07:15:43;12.43;;;10.55;;
48795;SDS011;34607;48.520;-1.330;2023-07-20T07:18:10;15.43;;;10.55;;
48795;SDS011;34607;48.520;-1.330;2023-07-20T07:20:39;10.50;;;8.80;;
48795;SDS011;34607;48.520;-1.330;2023-07-20T07:23:06;11.43;;;9.15;;
48795;SDS011;34607;48.520;-1.330;2023-07-20T07:25:33;13.23;;;8.15;;
48795;SDS011;34607;48.520;-1.330;2023-07-20T07:28:00;13.90;;;9.13;;
48795;SDS011;34607;48.520;-1.330;2023-07-20T07:30:27;11.50;;;9.27;;
48795;SDS011;34607;48.520;-1.330;2023-07-20T07:32:54;13.70;;;7.90;;
48795;SDS011;34607;48.520;-1.330;2023-07-20T07:35:21;12.25;;;7.72;;
48795;SDS011;34607;48.520;-1.330;2023-07-20T07:37:50;14.00;;;7.85;;
48795;SDS011;34607;48.520;-1.330;2023-07-20T07:40:17;10.18;;;6.35;;
48795;SDS011;34607;48.520;-1.330;2023-07-20T07:42:44;10.70;;;7.32;;
48795;SDS011;34607;48.520;-1.330;2023-07-20T07:45:11;11.13;;;6.53;;
48795;SDS011;34607;48.520;-1.330;2023-07-20T07:47:39;7.22;;;6.45;;
48795;SDS011;34607;48.520;-1.330;2023-07-20T07:50:06;10.07;;;7.03;;
48795;SDS011;34607;48.520;-1.330;2023-07-20T07:52:33;11.18;;;6.85;;
48795;SDS011;34607;48.520;-1.330;2023-07-20T07:55:02;6.65;;;5.20;;
48795;SDS011;34607;48.520;-1.330;2023-07-20T07:57:29;10.80;;;5.88;;
48795;SDS011;34607;48.520;-1.330;2023-07-20T07:59:56;6.82;;;5.00;;
48795;SDS011;34607;48.520;-1.330;2023-07-20T08:02:23;12.68;;;5.70;;
48795;SDS011;34607;48.520;-1.330;2023-07-20T08:04:51;9.88;;;5.43;;
48795;SDS011;34607;48.520;-1.330;2023-07-20T08:07:18;8.13;;;5.32;;
48795;SDS011;34607;48.520;-1.330;2023-07-20T08:09:45;9.00;;;4.40;;
48795;SDS011;34607;48.520;-1.330;2023-07-20T08:12:14;4.80;;;3.90;;
48795;SDS011;34607;48.520;-1.330;2023-07-20T08:14:43;9.05;;;4.07;;
48795;SDS011;34607;48.520;-1.330;2023-07-20T08:17:10;9.45;;;3.78;;
48795;SDS011;34607;48.520;-1.330;2023-07-20T08:19:37;7.05;;;4.05;;
48795;SDS011;34607;48.520;-1.330;2023-07-20T08:22:05;7.20;;;4.00;;
48795;SDS011;34607;48.520;-1.330;2023-07-20T08:24:32;7.15;;;4.00;;
48795;SDS011;34607;48.520;-1.330;2023-07-20T08:26:59;6.82;;;3.25;;
48795;SDS011;34607;48.520;-1.330;2023-07-20T08:29:27;3.75;;;3.15;;
48795;SDS011;34607;48.520;-1.330;2023-07-20T08:31:54;5.15;;;3.00;;
48795;SDS011;34607;48.520;-1.330;2023-07-20T08:34:21;4.57;;;3.40;;
48795;SDS011;34607;48.520;-1.330;2023-07-20T08:36:48;7.65;;;3.45;;
48795;SDS011;34607;48.520;-1.330;2023-07-20T08:39:15;5.90;;;3.03;;
48795;SDS011;34607;48.520;-1.330;2023-07-20T08:41:42;8.77;;;3.63;;
48795;SDS011;34607;48.520;-1.330;2023-07-20T08:44:10;5.53;;;3.40;;
48795;SDS011;34607;48.520;-1.330;2023-07-20T08:46:39;8.20;;;3.45;;
48795;SDS011;34607;48.520;-1.330;2023-07-20T08:49:07;7.13;;;4.03;;
48795;SDS011;34607;48.520;-1.330;2023-07-20T08:51:35;5.78;;;3.60;;
48795;SDS011;34607;48.520;-1.330;2023-07-20T08:54:02;6.97;;;4.03;;
48795;SDS011;34607;48.520;-1.330;2023-07-20T08:56:29;6.38;;;2.90;;
48795;SDS011;34607;48.520;-1.330;2023-07-20T08:59:00;6.18;;;2.78;;
48795;SDS011;34607;48.520;-1.330;2023-07-20T09:01:28;6.43;;;2.78;;
48795;SDS011;34607;48.520;-1.330;2023-07-20T09:03:56;3.97;;;2.50;;
48795;SDS011;34607;48.520;-1.330;2023-07-20T09:06:24;4.95;;;2.42;;
48795;SDS011;34607;48.520;-1.330;2023-07-20T09:08:51;3.28;;;1.65;;
48795;SDS011;34607;48.520;-1.330;2023-07-20T09:11:18;6.03;;;2.10;;
48795;SDS011;34607;48.520;-1.330;2023-07-20T09:13:45;6.30;;;2.25;;
48795;SDS011;34607;48.520;-1.330;2023-07-20T09:16:13;5.10;;;2.15;;
48795;SDS011;34607;48.520;-1.330;2023-07-20T09:18:40;5.80;;;2.20;;
48795;SDS011;34607;48.520;-1.330;2023-07-20T09:21:09;5.60;;;2.25;;
48795;SDS011;34607;48.520;-1.330;2023-07-20T09:23:37;6.07;;;2.72;;
48795;SDS011;34607;48.520;-1.330;2023-07-20T09:26:09;6.13;;;2.33;;
48795;SDS011;34607;48.520;-1.330;2023-07-20T09:28:41;4.00;;;2.35;;
48795;SDS011;34607;48.520;-1.330;2023-07-20T09:31:15;6.00;;;2.30;;
48795;SDS011;34607;48.520;-1.330;2023-07-20T09:33:43;3.33;;;2.17;;
48795;SDS011;34607;48.520;-1.330;2023-07-20T09:36:11;3.58;;;1.73;;
48795;SDS011;34607;48.520;-1.330;2023-07-20T09:38:39;3.95;;;1.88;;
48795;SDS011;34607;48.520;-1.330;2023-07-20T09:41:07;5.20;;;1.63;;
48795;SDS011;34607;48.520;-1.330;2023-07-20T09:43:35;3.25;;;1.98;;
48795;SDS011;34607;48.520;-1.330;2023-07-20T09:46:02;4.55;;;1.80;;
48795;SDS011;34607;48.520;-1.330;2023-07-20T09:48:29;3.55;;;1.98;;
48795;SDS011;34607;48.520;-1.330;2023-07-20T09:50:56;4.75;;;2.00;;
48795;SDS011;34607;48.520;-1.330;2023-07-20T09:53:25;4.93;;;2.05;;
48795;SDS011;34607;48.520;-1.330;2023-07-20T09:55:55;4.32;;;2.33;;
48795;SDS011;34607;48.520;-1.330;2023-07-20T09:58:22;3.58;;;2.22;;
48795;SDS011;34607;48.520;-1.330;2023-07-20T10:00:51;3.35;;;1.98;;
48795;SDS011;34607;48.520;-1.330;2023-07-20T10:03:22;5.05;;;2.78;;
48795;SDS011;34607;48.520;-1.330;2023-07-20T10:05:56;4.67;;;2.00;;
48795;SDS011;34607;48.520;-1.330;2023-07-20T10:08:26;3.25;;;2.10;;
48795;SDS011;34607;48.520;-1.330;2023-07-20T10:10:57;2.67;;;1.70;;
48795;SDS011;34607;48.520;-1.330;2023-07-20T10:13:27;4.53;;;1.95;;
48795;SDS011;34607;48.520;-1.330;2023-07-20T10:15:58;2.72;;;1.90;;
48795;SDS011;34607;48.520;-1.330;2023-07-20T10:18:31;3.15;;;1.85;;
48795;SDS011;34607;48.520;-1.330;2023-07-20T10:21:05;3.17;;;1.92;;
48795;SDS011;34607;48.520;-1.330;2023-07-20T10:23:34;2.60;;;1.80;;
48795;SDS011;34607;48.520;-1.330;2023-07-20T10:26:02;3.35;;;1.75;;
48795;SDS011;34607;48.520;-1.330;2023-07-20T10:28:29;4.60;;;1.85;;
48795;SDS011;34607;48.520;-1.330;2023-07-20T10:30:56;2.83;;;2.10;;
48795;SDS011;34607;48.520;-1.330;2023-07-20T10:33:24;3.92;;;1.75;;
48795;SDS011;34607;48.520;-1.330;2023-07-20T10:35:51;2.25;;;1.50;;
48795;SDS011;34607;48.520;-1.330;2023-07-20T10:38:20;2.38;;;1.75;;
48795;SDS011;34607;48.520;-1.330;2023-07-20T10:41:15;3.83;;;1.60;;
48795;SDS011;34607;48.520;-1.330;2023-07-20T10:43:44;5.65;;;2.05;;
48795;SDS011;34607;48.520;-1.330;2023-07-20T10:46:11;3.50;;;2.17;;
48795;SDS011;34607;48.520;-1.330;2023-07-20T10:51:27;4.25;;;2.17;;
48795;SDS011;34607;48.520;-1.330;2023-07-20T10:53:56;4.88;;;2.38;;
48795;SDS011;34607;48.520;-1.330;2023-07-20T10:56:26;4.78;;;2.20;;
48795;SDS011;34607;48.520;-1.330;2023-07-20T10:58:57;3.72;;;2.00;;
48795;SDS011;34607;48.520;-1.330;2023-07-20T11:01:29;4.57;;;2.00;;
48795;SDS011;34607;48.520;-1.330;2023-07-20T11:03:57;2.70;;;1.67;;
48795;SDS011;34607;48.520;-1.330;2023-07-20T11:06:30;8.68;;;3.00;;
48795;SDS011;34607;48.520;-1.330;2023-07-20T11:09:08;3.05;;;1.52;;
48795;SDS011;34607;48.520;-1.330;2023-07-20T11:11:39;5.68;;;1.98;;
48795;SDS011;34607;48.520;-1.330;2023-07-20T11:14:08;2.95;;;1.83;;
48795;SDS011;34607;48.520;-1.330;2023-07-20T11:16:39;3.05;;;1.95;;
48795;SDS011;34607;48.520;-1.330;2023-07-20T11:19:16;1.85;;;1.40;;
48795;SDS011;34607;48.520;-1.330;2023-07-20T11:21:44;3.30;;;1.60;;
48795;SDS011;34607;48.520;-1.330;2023-07-20T11:24:13;5.78;;;1.88;;
48795;SDS011;34607;48.520;-1.330;2023-07-20T11:26:41;2.30;;;1.52;;
48795;SDS011;34607;48.520;-1.330;2023-07-20T11:29:10;3.10;;;1.63;;
48795;SDS011;34607;48.520;-1.330;2023-07-20T11:31:37;4.38;;;1.67;;
48795;SDS011;34607;48.520;-1.330;2023-07-20T11:34:04;5.13;;;1.88;;
48795;SDS011;34607;48.520;-1.330;2023-07-20T11:36:32;6.18;;;1.80;;
48795;SDS011;34607;48.520;-1.330;2023-07-20T11:39:00;3.47;;;1.50;;
48795;SDS011;34607;48.520;-1.330;2023-07-20T11:41:31;3.45;;;1.60;;
48795;SDS011;34607;48.520;-1.330;2023-07-20T11:43:59;1.85;;;1.20;;
48795;SDS011;34607;48.520;-1.330;2023-07-20T11:46:27;2.83;;;1.77;;
48795;SDS011;34607;48.520;-1.330;2023-07-20T11:48:58;3.70;;;1.35;;
48795;SDS011;34607;48.520;-1.330;2023-07-20T11:51:26;5.70;;;1.63;;
48795;SDS011;34607;48.520;-1.330;2023-07-20T11:53:55;3.15;;;1.38;;
48795;SDS011;34607;48.520;-1.330;2023-07-20T11:56:22;3.80;;;1.70;;
48795;SDS011;34607;48.520;-1.330;2023-07-20T11:58:53;2.70;;;1.70;;
48795;SDS011;34607;48.520;-1.330;2023-07-20T12:01:21;4.10;;;1.70;;
48795;SDS011;34607;48.520;-1.330;2023-07-20T12:03:49;4.35;;;1.55;;
48795;SDS011;34607;48.520;-1.330;2023-07-20T12:06:17;6.00;;;2.05;;
48795;SDS011;34607;48.520;-1.330;2023-07-20T12:08:44;5.00;;;2.03;;
48795;SDS011;34607;48.520;-1.330;2023-07-20T12:11:11;3.70;;;1.83;;
48795;SDS011;34607;48.520;-1.330;2023-07-20T12:13:38;2.47;;;1.48;;
48795;SDS011;34607;48.520;-1.330;2023-07-20T12:16:13;4.22;;;2.05;;
48795;SDS011;34607;48.520;-1.330;2023-07-20T12:18:41;2.55;;;1.50;;
48795;SDS011;34607;48.520;-1.330;2023-07-20T12:21:10;3.53;;;1.40;;
48795;SDS011;34607;48.520;-1.330;2023-07-20T12:23:37;6.43;;;1.73;;
48795;SDS011;34607;48.520;-1.330;2023-07-20T12:26:08;3.78;;;1.70;;
48795;SDS011;34607;48.520;-1.330;2023-07-20T12:28:39;5.63;;;2.17;;
48795;SDS011;34607;48.520;-1.330;2023-07-20T12:31:07;5.15;;;2.15;;
48795;SDS011;34607;48.520;-1.330;2023-07-20T12:33:36;7.65;;;3.15;;
48795;SDS011;34607;48.520;-1.330;2023-07-20T12:36:05;5.75;;;1.90;;
48795;SDS011;34607;48.520;-1.330;2023-07-20T12:38:32;3.55;;;1.63;;
48795;SDS011;34607;48.520;-1.330;2023-07-20T12:41:00;6.47;;;1.83;;
48795;SDS011;34607;48.520;-1.330;2023-07-20T12:43:27;2.75;;;1.50;;
48795;SDS011;34607;48.520;-1.330;2023-07-20T12:45:55;6.85;;;2.70;;
48795;SDS011;34607;48.520;-1.330;2023-07-20T12:48:22;4.80;;;1.67;;
48795;SDS011;34607;48.520;-1.330;2023-07-20T12:50:51;6.68;;;1.73;;
48795;SDS011;34607;48.520;-1.330;2023-07-20T12:53:18;4.22;;;1.67;;
48795;SDS011;34607;48.520;-1.330;2023-07-20T12:55:45;5.85;;;1.92;;
48795;SDS011;34607;48.520;-1.330;2023-07-20T12:58:12;4.93;;;1.52;;
48795;SDS011;34607;48.520;-1.330;2023-07-20T13:00:39;3.35;;;1.30;;
48795;SDS011;34607;48.520;-1.330;2023-07-20T13:03:06;3.47;;;1.60;;
48795;SDS011;34607;48.520;-1.330;2023-07-20T13:05:34;2.05;;;1.15;;
48795;SDS011;34607;48.520;-1.330;2023-07-20T13:08:02;3.67;;;1.30;;
48795;SDS011;34607;48.520;-1.330;2023-07-20T13:10:31;2.85;;;1.30;;
48795;SDS011;34607;48.520;-1.330;2023-07-20T13:12:59;2.75;;;1.40;;
48795;SDS011;34607;48.520;-1.330;2023-07-20T13:15:29;8.07;;;1.58;;
48795;SDS011;34607;48.520;-1.330;2023-07-20T13:17:57;2.88;;;2.05;;
48795;SDS011;34607;48.520;-1.330;2023-07-20T13:20:25;4.63;;;1.88;;
48795;SDS011;34607;48.520;-1.330;2023-07-20T13:22:53;3.83;;;1.27;;
48795;SDS011;34607;48.520;-1.330;2023-07-20T13:25:22;2.60;;;1.42;;
48795;SDS011;34607;48.520;-1.330;2023-07-20T13:27:49;2.50;;;1.73;;
48795;SDS011;34607;48.520;-1.330;2023-07-20T13:30:16;2.15;;;1.30;;
48795;SDS011;34607;48.520;-1.330;2023-07-20T13:32:43;1.98;;;1.10;;
48795;SDS011;34607;48.520;-1.330;2023-07-20T13:35:10;2.35;;;1.75;;
48795;SDS011;34607;48.520;-1.330;2023-07-20T13:37:37;4.65;;;1.48;;
48795;SDS011;34607;48.520;-1.330;2023-07-20T13:40:05;4.78;;;2.45;;
48795;SDS011;34607;48.520;-1.330;2023-07-20T13:42:35;2.42;;;1.42;;
48795;SDS011;34607;48.520;-1.330;2023-07-20T13:45:03;3.80;;;1.40;;
48795;SDS011;34607;48.520;-1.330;2023-07-20T13:47:30;3.83;;;1.30;;
48795;SDS011;34607;48.520;-1.330;2023-07-20T13:49:57;3.25;;;1.23;;
48795;SDS011;34607;48.520;-1.330;2023-07-20T13:52:24;1.13;;;0.95;;
48795;SDS011;34607;48.520;-1.330;2023-07-20T13:54:51;4.93;;;1.40;;
48795;SDS011;34607;48.520;-1.330;2023-07-20T13:57:18;2.10;;;1.33;;
48795;SDS011;34607;48.520;-1.330;2023-07-20T13:59:47;3.83;;;1.83;;
48795;SDS011;34607;48.520;-1.330;2023-07-20T14:02:14;1.88;;;1.52;;
48795;SDS011;34607;48.520;-1.330;2023-07-20T14:04:41;3.35;;;1.00;;
48795;SDS011;34607;48.520;-1.330;2023-07-20T14:07:08;2.60;;;1.27;;
48795;SDS011;34607;48.520;-1.330;2023-07-20T14:09:36;4.47;;;1.40;;
48795;SDS011;34607;48.520;-1.330;2023-07-20T14:12:03;1.60;;;1.10;;
48795;SDS011;34607;48.520;-1.330;2023-07-20T14:14:31;1.45;;;1.35;;
48795;SDS011;34607;48.520;-1.330;2023-07-20T14:16:59;2.70;;;1.40;;
48795;SDS011;34607;48.520;-1.330;2023-07-20T14:19:26;2.83;;;1.15;;
48795;SDS011;34607;48.520;-1.330;2023-07-20T14:21:53;1.33;;;1.05;;
48795;SDS011;34607;48.520;-1.330;2023-07-20T14:24:21;1.85;;;1.00;;
48795;SDS011;34607;48.520;-1.330;2023-07-20T14:26:48;1.90;;;1.30;;
48795;SDS011;34607;48.520;-1.330;2023-07-20T14:29:15;2.22;;;1.40;;
48795;SDS011;34607;48.520;-1.330;2023-07-20T14:31:43;6.47;;;1.20;;
48795;SDS011;34607;48.520;-1.330;2023-07-20T14:34:11;2.35;;;1.30;;
48795;SDS011;34607;48.520;-1.330;2023-07-20T14:36:40;2.40;;;1.02;;
48795;SDS011;34607;48.520;-1.330;2023-07-20T14:39:07;2.55;;;1.10;;
48795;SDS011;34607;48.520;-1.330;2023-07-20T14:41:34;2.90;;;1.38;;
48795;SDS011;34607;48.520;-1.330;2023-07-20T14:44:01;2.42;;;1.20;;
48795;SDS011;34607;48.520;-1.330;2023-07-20T14:46:28;1.77;;;0.93;;
48795;SDS011;34607;48.520;-1.330;2023-07-20T14:48:57;3.30;;;1.20;;
48795;SDS011;34607;48.520;-1.330;2023-07-20T14:51:25;3.00;;;1.52;;
48795;SDS011;34607;48.520;-1.330;2023-07-20T14:53:57;3.83;;;1.40;;
48795;SDS011;34607;48.520;-1.330;2023-07-20T14:56:24;2.22;;;1.00;;
48795;SDS011;34607;48.520;-1.330;2023-07-20T14:58:51;1.90;;;1.10;;
48795;SDS011;34607;48.520;-1.330;2023-07-20T15:01:18;3.45;;;1.30;;
48795;SDS011;34607;48.520;-1.330;2023-07-20T15:03:45;4.38;;;1.30;;
48795;SDS011;34607;48.520;-1.330;2023-07-20T15:06:12;2.47;;;1.20;;
48795;SDS011;34607;48.520;-1.330;2023-07-20T15:08:41;1.95;;;1.30;;
48795;SDS011;34607;48.520;-1.330;2023-07-20T15:11:08;3.92;;;1.40;;
48795;SDS011;34607;48.520;-1.330;2023-07-20T15:13:35;1.67;;;1.38;;
48795;SDS011;34607;48.520;-1.330;2023-07-20T15:16:02;4.95;;;1.08;;
48795;SDS011;34607;48.520;-1.330;2023-07-20T15:18:29;1.80;;;1.20;;
48795;SDS011;34607;48.520;-1.330;2023-07-20T15:20:56;2.33;;;1.13;;
48795;SDS011;34607;48.520;-1.330;2023-07-20T15:23:23;4.93;;;1.65;;
48795;SDS011;34607;48.520;-1.330;2023-07-20T15:25:51;1.85;;;1.00;;
48795;SDS011;34607;48.520;-1.330;2023-07-20T15:28:18;2.15;;;1.08;;
48795;SDS011;34607;48.520;-1.330;2023-07-20T15:30:45;1.67;;;1.40;;
48795;SDS011;34607;48.520;-1.330;2023-07-20T15:33:12;1.48;;;1.33;;
48795;SDS011;34607;48.520;-1.330;2023-07-20T15:35:40;1.98;;;1.17;;
48795;SDS011;34607;48.520;-1.330;2023-07-20T15:38:07;2.58;;;1.15;;
48795;SDS011;34607;48.520;-1.330;2023-07-20T15:40:35;1.15;;;1.02;;
48795;SDS011;34607;48.520;-1.330;2023-07-20T15:43:03;2.45;;;1.30;;
48795;SDS011;34607;48.520;-1.330;2023-07-20T15:45:30;3.47;;;1.42;;
48795;SDS011;34607;48.520;-1.330;2023-07-20T15:47:57;1.58;;;1.27;;
48795;SDS011;34607;48.520;-1.330;2023-07-20T15:50:24;3.30;;;1.33;;
48795;SDS011;34607;48.520;-1.330;2023-07-20T15:52:51;1.75;;;1.40;;
48795;SDS011;34607;48.520;-1.330;2023-07-20T15:55:18;2.85;;;1.60;;
48795;SDS011;34607;48.520;-1.330;2023-07-20T15:57:45;3.70;;;1.50;;
48795;SDS011;34607;48.520;-1.330;2023-07-20T16:00:14;1.77;;;1.13;;
48795;SDS011;34607;48.520;-1.330;2023-07-20T16:02:43;1.70;;;1.20;;
48795;SDS011;34607;48.520;-1.330;2023-07-20T16:05:10;1.80;;;1.20;;
48795;SDS011;34607;48.520;-1.330;2023-07-20T16:07:37;2.05;;;1.10;;
48795;SDS011;34607;48.520;-1.330;2023-07-20T16:10:04;1.42;;;1.30;;
48795;SDS011;34607;48.520;-1.330;2023-07-20T16:12:34;2.05;;;0.93;;
48795;SDS011;34607;48.520;-1.330;2023-07-20T16:15:01;3.55;;;1.02;;
48795;SDS011;34607;48.520;-1.330;2023-07-20T16:17:31;3.20;;;1.52;;
48795;SDS011;34607;48.520;-1.330;2023-07-20T16:19:58;1.70;;;1.10;;
48795;SDS011;34607;48.520;-1.330;2023-07-20T16:22:25;2.55;;;1.40;;
48795;SDS011;34607;48.520;-1.330;2023-07-20T16:24:52;1.42;;;1.30;;
48795;SDS011;34607;48.520;-1.330;2023-07-20T16:27:19;2.80;;;1.35;;
48795;SDS011;34607;48.520;-1.330;2023-07-20T16:29:46;2.72;;;1.58;;
48795;SDS011;34607;48.520;-1.330;2023-07-20T16:32:13;1.73;;;1.40;;
48795;SDS011;34607;48.520;-1.330;2023-07-20T16:34:42;1.70;;;1.30;;
48795;SDS011;34607;48.520;-1.330;2023-07-20T16:37:09;2.03;;;1.27;;
48795;SDS011;34607;48.520;-1.330;2023-07-20T16:39:36;2.95;;;1.27;;
48795;SDS011;34607;48.520;-1.330;2023-07-20T16:42:05;1.52;;;1.30;;
48795;SDS011;34607;48.520;-1.330;2023-07-20T16:44:33;3.08;;;1.88;;
48795;SDS011;34607;48.520;-1.330;2023-07-20T16:47:00;3.10;;;1.27;;
48795;SDS011;34607;48.520;-1.330;2023-07-20T16:49:27;2.22;;;1.45;;
48795;SDS011;34607;48.520;-1.330;2023-07-20T16:51:57;2.92;;;1.55;;
48795;SDS011;34607;48.520;-1.330;2023-07-20T16:54:24;3.88;;;1.77;;
48795;SDS011;34607;48.520;-1.330;2023-07-20T16:56:51;3.17;;;1.63;;
48795;SDS011;34607;48.520;-1.330;2023-07-20T16:59:18;3.35;;;1.83;;
48795;SDS011;34607;48.520;-1.330;2023-07-20T17:01:45;3.05;;;1.52;;
48795;SDS011;34607;48.520;-1.330;2023-07-20T17:04:12;1.83;;;1.63;;
48795;SDS011;34607;48.520;-1.330;2023-07-20T17:06:40;3.90;;;1.92;;
48795;SDS011;34607;48.520;-1.330;2023-07-20T17:09:08;3.83;;;2.00;;
48795;SDS011;34607;48.520;-1.330;2023-07-20T17:11:35;2.92;;;1.75;;
48795;SDS011;34607;48.520;-1.330;2023-07-20T17:14:02;2.53;;;1.60;;
48795;SDS011;34607;48.520;-1.330;2023-07-20T17:16:30;3.80;;;1.70;;
48795;SDS011;34607;48.520;-1.330;2023-07-20T17:18:57;2.58;;;1.40;;
48795;SDS011;34607;48.520;-1.330;2023-07-20T17:21:24;2.05;;;1.45;;
48795;SDS011;34607;48.520;-1.330;2023-07-20T17:23:52;2.50;;;1.65;;
48795;SDS011;34607;48.520;-1.330;2023-07-20T17:26:21;6.05;;;3.08;;
48795;SDS011;34607;48.520;-1.330;2023-07-20T17:28:48;4.45;;;2.00;;
48795;SDS011;34607;48.520;-1.330;2023-07-20T17:31:15;3.00;;;2.30;;
48795;SDS011;34607;48.520;-1.330;2023-07-20T17:33:42;3.15;;;2.20;;
48795;SDS011;34607;48.520;-1.330;2023-07-20T17:36:09;4.72;;;2.00;;
48795;SDS011;34607;48.520;-1.330;2023-07-20T17:38:36;3.72;;;1.90;;
48795;SDS011;34607;48.520;-1.330;2023-07-20T17:41:04;4.57;;;2.17;;
48795;SDS011;34607;48.520;-1.330;2023-07-20T17:43:32;2.55;;;2.03;;
48795;SDS011;34607;48.520;-1.330;2023-07-20T17:45:59;5.20;;;1.92;;
48795;SDS011;34607;48.520;-1.330;2023-07-20T17:48:26;5.63;;;1.90;;
48795;SDS011;34607;48.520;-1.330;2023-07-20T17:50:53;5.82;;;2.15;;
48795;SDS011;34607;48.520;-1.330;2023-07-20T17:53:21;3.88;;;2.30;;
48795;SDS011;34607;48.520;-1.330;2023-07-20T17:55:48;4.85;;;2.30;;
48795;SDS011;34607;48.520;-1.330;2023-07-20T17:58:15;4.25;;;2.42;;
48795;SDS011;34607;48.520;-1.330;2023-07-20T18:00:43;3.67;;;2.95;;
48795;SDS011;34607;48.520;-1.330;2023-07-20T18:03:10;3.05;;;2.00;;
48795;SDS011;34607;48.520;-1.330;2023-07-20T18:05:38;4.55;;;1.73;;
48795;SDS011;34607;48.520;-1.330;2023-07-20T18:08:05;1.92;;;1.70;;
48795;SDS011;34607;48.520;-1.330;2023-07-20T18:10:32;5.38;;;2.63;;
48795;SDS011;34607;48.520;-1.330;2023-07-20T18:12:59;5.93;;;2.25;;
48795;SDS011;34607;48.520;-1.330;2023-07-20T18:15:26;4.90;;;2.35;;
48795;SDS011;34607;48.520;-1.330;2023-07-20T18:17:55;4.38;;;3.20;;
48795;SDS011;34607;48.520;-1.330;2023-07-20T18:20:22;4.88;;;2.72;;
48795;SDS011;34607;48.520;-1.330;2023-07-20T18:22:49;3.80;;;2.30;;
48795;SDS011;34607;48.520;-1.330;2023-07-20T18:25:16;2.47;;;2.28;;
48795;SDS011;34607;48.520;-1.330;2023-07-20T18:27:43;8.93;;;3.80;;
48795;SDS011;34607;48.520;-1.330;2023-07-20T18:30:10;4.68;;;3.33;;
48795;SDS011;34607;48.520;-1.330;2023-07-20T18:32:43;4.20;;;2.73;;
48795;SDS011;34607;48.520;-1.330;2023-07-20T18:35:13;4.60;;;2.70;;
48795;SDS011;34607;48.520;-1.330;2023-07-20T18:37:40;4.85;;;2.20;;
48795;SDS011;34607;48.520;-1.330;2023-07-20T18:40:08;3.10;;;2.28;;
48795;SDS011;34607;48.520;-1.330;2023-07-20T18:42:35;3.65;;;2.72;;
48795;SDS011;34607;48.520;-1.330;2023-07-20T18:45:03;5.03;;;3.00;;
48795;SDS011;34607;48.520;-1.330;2023-07-20T18:47:30;4.72;;;2.85;;
48795;SDS011;34607;48.520;-1.330;2023-07-20T18:49:57;3.95;;;2.45;;
48795;SDS011;34607;48.520;-1.330;2023-07-20T18:52:26;3.05;;;2.53;;
48795;SDS011;34607;48.520;-1.330;2023-07-20T18:54:53;3.15;;;2.08;;
48795;SDS011;34607;48.520;-1.330;2023-07-20T18:57:20;3.78;;;2.28;;
48795;SDS011;34607;48.520;-1.330;2023-07-20T18:59:47;3.38;;;2.30;;
48795;SDS011;34607;48.520;-1.330;2023-07-20T19:02:14;2.53;;;2.30;;
48795;SDS011;34607;48.520;-1.330;2023-07-20T19:04:42;5.95;;;2.35;;
48795;SDS011;34607;48.520;-1.330;2023-07-20T19:07:09;3.63;;;2.17;;
48795;SDS011;34607;48.520;-1.330;2023-07-20T19:09:37;4.55;;;2.40;;
48795;SDS011;34607;48.520;-1.330;2023-07-20T19:12:04;3.65;;;2.28;;
48795;SDS011;34607;48.520;-1.330;2023-07-20T19:14:33;6.82;;;2.15;;
48795;SDS011;34607;48.520;-1.330;2023-07-20T19:17:00;7.72;;;2.10;;
48795;SDS011;34607;48.520;-1.330;2023-07-20T19:19:27;4.18;;;2.05;;
48795;SDS011;34607;48.520;-1.330;2023-07-20T19:21:56;3.60;;;1.92;;
48795;SDS011;34607;48.520;-1.330;2023-07-20T19:24:23;3.28;;;1.80;;
48795;SDS011;34607;48.520;-1.330;2023-07-20T19:26:52;3.38;;;2.05;;
48795;SDS011;34607;48.520;-1.330;2023-07-20T19:29:19;3.03;;;1.77;;
48795;SDS011;34607;48.520;-1.330;2023-07-20T19:31:46;2.80;;;1.80;;
48795;SDS011;34607;48.520;-1.330;2023-07-20T19:34:13;1.75;;;1.52;;
48795;SDS011;34607;48.520;-1.330;2023-07-20T19:36:40;2.75;;;1.70;;
48795;SDS011;34607;48.520;-1.330;2023-07-20T19:39:07;3.10;;;1.55;;
48795;SDS011;34607;48.520;-1.330;2023-07-20T19:41:35;2.13;;;1.33;;
48795;SDS011;34607;48.520;-1.330;2023-07-20T19:44:04;1.83;;;1.58;;
48795;SDS011;34607;48.520;-1.330;2023-07-20T19:46:34;5.38;;;1.80;;
48795;SDS011;34607;48.520;-1.330;2023-07-20T19:49:01;3.10;;;2.08;;
48795;SDS011;34607;48.520;-1.330;2023-07-20T19:51:28;2.05;;;1.60;;
48795;SDS011;34607;48.520;-1.330;2023-07-20T19:53:55;3.60;;;2.30;;
48795;SDS011;34607;48.520;-1.330;2023-07-20T19:56:23;1.90;;;1.63;;
48795;SDS011;34607;48.520;-1.330;2023-07-20T19:58:50;2.30;;;1.60;;
48795;SDS011;34607;48.520;-1.330;2023-07-20T20:01:18;2.97;;;1.75;;
48795;SDS011;34607;48.520;-1.330;2023-07-20T20:03:46;2.47;;;1.50;;
48795;SDS011;34607;48.520;-1.330;2023-07-20T20:06:13;2.50;;;1.60;;
48795;SDS011;34607;48.520;-1.330;2023-07-20T20:08:40;3.95;;;2.00;;
48795;SDS011;34607;48.520;-1.330;2023-07-20T20:11:07;2.92;;;1.70;;
48795;SDS011;34607;48.520;-1.330;2023-07-20T20:13:34;8.82;;;2.10;;
48795;SDS011;34607;48.520;-1.330;2023-07-20T20:16:01;3.63;;;1.88;;
48795;SDS011;34607;48.520;-1.330;2023-07-20T20:18:31;2.80;;;2.10;;
48795;SDS011;34607;48.520;-1.330;2023-07-20T20:20:59;3.63;;;1.90;;
48795;SDS011;34607;48.520;-1.330;2023-07-20T20:23:26;3.47;;;2.25;;
48795;SDS011;34607;48.520;-1.330;2023-07-20T20:25:53;2.28;;;1.42;;
48795;SDS011;34607;48.520;-1.330;2023-07-20T20:28:20;3.17;;;1.80;;
48795;SDS011;34607;48.520;-1.330;2023-07-20T20:30:49;3.00;;;1.80;;
48795;SDS011;34607;48.520;-1.330;2023-07-20T20:33:17;2.42;;;2.13;;
48795;SDS011;34607;48.520;-1.330;2023-07-20T20:35:46;5.50;;;2.00;;
48795;SDS011;34607;48.520;-1.330;2023-07-20T20:38:16;3.28;;;2.20;;
48795;SDS011;34607;48.520;-1.330;2023-07-20T20:40:44;3.13;;;1.85;;
48795;SDS011;34607;48.520;-1.330;2023-07-20T20:43:11;3.58;;;1.65;;
48795;SDS011;34607;48.520;-1.330;2023-07-20T20:45:39;3.70;;;2.72;;
48795;SDS011;34607;48.520;-1.330;2023-07-20T20:48:06;2.25;;;1.85;;
48795;SDS011;34607;48.520;-1.330;2023-07-20T20:50:33;4.40;;;1.75;;
48795;SDS011;34607;48.520;-1.330;2023-07-20T20:53:02;2.25;;;1.52;;
48795;SDS011;34607;48.520;-1.330;2023-07-20T20:55:30;4.03;;;1.70;;
